Moseley, Virginia
Current Conditions -  °F | °C
As of 4:54 PM on Tuesday 21 Oct 2014 (Local Time) from KRIC Reporting Station
Broken Clouds Broken Clouds  
Wind Chill: 21°   Ceiling: 8000
Heat Index: 21°   Visibility: 10mi
Dew Point:   Wind: 6mph
Humidity: 47%   Direction: 330°NNW
Pressure: 29.8"   Gusts: NA
Location:  37.48°N, 77.78°W
Report Text: KRIC 212054Z 33005KT 10SM SCT060 BKN080 BKN250 21/09 A2980 RMK AO2 SLP096 T02060089 55006
Loading
Personal Weather Stations






























Interactive Weather Map
Tropical Storm Tracking
New forecast layout! Learn more

10-Day Weather Forecast

Advertisements
Track Severe Weather on mobile